Airfield :
LOGIN :

Register | Disclaimer

   EN    FR    IT 

 










Legend :    VFR   Marginal VFR   IFR   Intensive IFR   Very Intensive IFR
Visi :
Ceiling :
>= 8 km
>= 3000ft
5 to 8 km
1000 to 3000 ft
1500m to 5 km
500 to 1000 ft
800 to 1500m
200 to 500 ft
< 800m
< 200 ft
Symbols :   Thunderstorms  Fog  Heavy snow  Heavy precipitations  Wind > 20 kt
SIGMETs :     Misc.  Thunderstorms  Icing  Turbulence  Mountain Waves  Volcanic Ashes






- Airport Elevation : 135 ft
- IATA code : EDI


EGPH - Edinburgh

CURRENT METAR :
  • 150950Z 06008KT 030V100 8000 -RA FEW007 16/15 Q1003

EXPIRED METARs :
  • 150920Z 07005KT 8000 -RA FEW029 BKN045 16/15 Q1004
  • 150850Z 04004KT 6000 -RA BKN045 16/15 Q1004
  • 150820Z 01004KT 310V090 6000 -RA FEW011 BKN040 16/15 Q1004
  • 150750Z 29003KT 7000 FEW008 SCT030TCU BKN048 16/15 Q1004
  • 150720Z 05003KT 360V120 8000 -SHRA FEW007 16/15 Q1003

TAF TAF EGPH
Valid from the 15 at 06:00 until the 16 at 06:00 UTC


150456Z 1506/1606 09005KT 9999 SCT010
TEMPO 1506/1606 5000 RA SHRA BKN008
PROB30
TEMPO 1506/1508 3000 +TSRA
PROB40
TEMPO 1512/1606 3000 +RA +SHRA BKN004 BKN040CB
PROB30
TEMPO 1520/1604 TS
ATIS : +44 131 339 2823



MET'MAP, your aeronautical weather chart ! - Copyright ORBIFLY December 2007 - Disclaimer

ORBIFLY MET'MAP TEAM :

Programming & Development : Alexandra Zaïnal
Original concept : Baudouin d'Aumeries
Technical & hardware support : Manuel Goepfert
Assistance : Marc-Olivier Méhu




SOURCES & CREDITS :

   NOAA